Time;durP1;ratioP1;P1;durP2;ratioP2;P2;SDS_P1;SDS_P2;PMS_P1;PMS_P2;Temp;Humidity;BMP_temperature;BMP_pressure;BME280_temperature;BME280_humidity;BME280_pressure;Samples;Min_cycle;Max_cycle;Signal;HPM_P1;HPM_P2
2022/02/05 00:02:12;;;;;;;8.25;4.85;;;21.00;94.00;;;;;;4213368;28;20036;-63
2022/02/05 00:04:18;;;;;;;10.13;4.15;;;21.00;94.10;;;;;;4220263;28;20043;-63
2022/02/05 00:06:29;;;;;;;9.13;6.03;;;21.00;94.20;;;;;;4216692;28;20044;-64
2022/02/05 00:13:20;;;;;;;11.02;4.88;;;21.20;94.00;;;;;;4226289;28;20055;-61
2022/02/05 00:15:34;;;;;;;6.50;4.32;;;21.10;93.80;;;;;;4219552;28;20047;-62
2022/02/05 00:40:16;;;;;;;5.90;2.80;;;21.10;93.70;;;;;;4222009;28;20646;-63
2022/02/05 00:44:30;;;;;;;6.30;3.70;;;21.10;93.70;;;;;;4215357;28;20432;-63
2022/02/05 00:46:39;;;;;;;7.38;3.47;;;21.20;93.90;;;;;;4210542;28;20421;-63
2022/02/05 00:48:43;;;;;;;13.93;4.75;;;21.20;93.80;;;;;;4211839;28;20100;-63
2022/02/05 00:50:54;;;;;;;8.07;4.80;;;21.10;93.90;;;;;;4210438;28;20085;-64
2022/02/05 00:53:08;;;;;;;8.80;3.95;;;21.30;93.60;;;;;;4211647;28;20131;-64
2022/02/05 00:55:22;;;;;;;10.23;4.97;;;21.30;93.20;;;;;;4211937;28;20460;-63
2022/02/05 00:59:32;;;;;;;7.85;4.00;;;21.50;93.30;;;;;;4227176;28;20040;-65
2022/02/05 01:01:36;;;;;;;8.85;4.15;;;21.40;93.10;;;;;;4221760;28;20075;-66
2022/02/05 01:03:41;;;;;;;9.63;4.00;;;21.50;92.70;;;;;;4222684;28;20461;-65
2022/02/05 01:05:46;;;;;;;7.22;3.88;;;21.50;92.50;;;;;;4224531;28;20036;-65
2022/02/05 01:07:50;;;;;;;7.63;4.03;;;21.40;92.70;;;;;;4219594;28;20040;-66
2022/02/05 01:09:54;;;;;;;7.43;4.35;;;21.60;92.60;;;;;;4221162;28;20059;-65
2022/02/05 01:12:01;;;;;;;5.57;3.95;;;21.80;92.50;;;;;;4221227;28;20056;-65
2022/02/05 01:14:09;;;;;;;6.03;3.60;;;21.90;92.60;;;;;;4227446;28;20043;-65
2022/02/05 01:16:31;;;;;;;8.30;4.05;;;21.80;92.20;;;;;;4225916;28;20069;-65
2022/02/05 01:18:40;;;;;;;7.10;4.05;;;21.80;92.30;;;;;;4222433;28;20131;-66
2022/02/05 01:23:06;;;;;;;10.13;4.85;;;21.60;92.40;;;;;;4219812;28;20097;-66
2022/02/05 01:25:14;;;;;;;5.03;3.47;;;21.50;92.30;;;;;;4220952;28;20032;-65
2022/02/05 01:31:50;;;;;;;8.07;3.72;;;21.90;91.60;;;;;;4218660;28;20050;-65
2022/02/05 01:52:30;;;;;;;5.47;3.28;;;22.40;90.70;;;;;;4224802;28;20425;-65
2022/02/05 01:56:48;;;;;;;6.38;2.70;;;22.40;91.10;;;;;;4223616;28;20044;-65
2022/02/05 02:05:39;;;;;;;6.05;2.90;;;22.70;90.60;;;;;;4223477;28;20661;-66
2022/02/05 02:12:36;;;;;;;3.65;2.80;;;22.70;90.70;;;;;;4226820;28;20039;-66
2022/02/05 02:14:53;;;;;;;4.43;2.80;;;22.70;90.30;;;;;;4224836;28;20047;-65
2022/02/05 02:21:32;;;;;;;7.68;3.22;;;22.50;90.60;;;;;;4222211;28;20047;-65
2022/02/05 02:25:56;;;;;;;4.13;3.00;;;22.60;90.70;;;;;;4226290;28;20147;-66
2022/02/05 02:28:09;;;;;;;3.88;2.72;;;22.70;90.60;;;;;;4221182;28;20048;-65
2022/02/05 02:30:17;;;;;;;5.75;2.97;;;22.80;90.70;;;;;;4223699;28;20035;-65
2022/02/05 02:32:22;;;;;;;6.13;2.85;;;22.80;91.00;;;;;;4224178;28;20052;-65
2022/02/05 02:34:33;;;;;;;4.93;2.97;;;22.80;91.40;;;;;;4219959;28;20101;-65
2022/02/05 02:36:48;;;;;;;3.47;2.60;;;22.70;90.10;;;;;;4220220;28;20481;-66
2022/02/05 02:38:57;;;;;;;4.50;3.05;;;22.70;90.40;;;;;;4220492;28;20123;-65
2022/02/05 02:41:12;;;;;;;19.10;5.47;;;22.90;90.90;;;;;;4220388;28;20038;-66
2022/02/05 02:43:23;;;;;;;5.93;3.25;;;22.90;89.90;;;;;;4221820;28;20036;-64
2022/02/05 02:45:27;;;;;;;5.00;3.47;;;22.70;90.00;;;;;;4222006;28;20093;-64
2022/02/05 02:47:31;;;;;;;9.90;2.92;;;22.60;90.40;;;;;;4222282;28;20067;-64
2022/02/05 02:56:47;;;;;;;4.18;2.90;;;23.00;90.20;;;;;;4221892;28;20556;-64
2022/02/05 02:58:51;;;;;;;10.48;3.30;;;22.60;90.50;;;;;;4226439;27;20048;-64
2022/02/05 03:00:58;;;;;;;9.85;4.18;;;22.70;90.30;;;;;;4221533;28;20460;-65
2022/02/05 03:03:03;;;;;;;12.52;4.15;;;22.80;90.60;;;;;;4224213;28;20052;-65
2022/02/05 03:05:07;;;;;;;6.18;3.92;;;22.90;90.30;;;;;;4237107;27;20127;-65
2022/02/05 03:07:12;;;;;;;5.88;3.40;;;23.00;90.10;;;;;;4218664;28;20044;-65
2022/02/05 03:09:16;;;;;;;6.55;3.67;;;23.00;90.20;;;;;;4217098;28;20071;-64
2022/02/05 03:11:23;;;;;;;9.75;3.45;;;23.10;90.10;;;;;;4216420;28;20390;-65
2022/02/05 03:13:27;;;;;;;12.32;3.85;;;23.20;90.20;;;;;;4222845;28;20089;-64
2022/02/05 03:15:37;;;;;;;8.25;3.30;;;23.20;90.50;;;;;;4229467;28;20419;-64
2022/02/05 03:19:58;;;;;;;5.72;3.30;;;23.00;90.20;;;;;;4227351;28;20044;-64
2022/02/05 03:22:02;;;;;;;5.43;3.50;;;23.10;90.40;;;;;;4228836;28;20528;-65
2022/02/05 03:24:07;;;;;;;5.00;3.35;;;23.10;90.40;;;;;;4224328;28;20040;-64
2022/02/05 03:26:11;;;;;;;5.40;3.45;;;23.00;89.80;;;;;;4222698;28;20043;-64
2022/02/05 03:28:16;;;;;;;5.88;3.10;;;23.10;90.10;;;;;;4220226;28;20042;-65
2022/02/05 03:30:20;;;;;;;11.35;3.63;;;23.10;90.20;;;;;;4221602;28;20550;-65
2022/02/05 03:32:25;;;;;;;6.40;3.70;;;23.20;90.20;;;;;;4227570;28;20043;-65
2022/02/05 03:34:29;;;;;;;4.93;3.38;;;23.20;90.00;;;;;;4227713;28;20036;-65
2022/02/05 03:36:40;;;;;;;6.38;3.42;;;23.20;90.10;;;;;;4224021;28;20079;-64
2022/02/05 03:38:44;;;;;;;6.03;3.63;;;23.40;90.00;;;;;;4236020;27;20051;-66
2022/02/05 03:40:48;;;;;;;6.53;3.47;;;23.40;89.70;;;;;;4225592;28;20123;-64
2022/02/05 03:42:52;;;;;;;7.05;3.58;;;23.50;89.40;;;;;;4229072;28;20040;-65
2022/02/05 03:44:57;;;;;;;7.10;3.60;;;23.60;89.30;;;;;;4229252;28;20113;-64
2022/02/05 03:47:01;;;;;;;9.13;3.38;;;23.60;89.40;;;;;;4229148;27;20416;-65
2022/02/05 03:49:06;;;;;;;6.20;3.33;;;23.80;89.20;;;;;;4229008;28;20040;-65
2022/02/05 03:51:11;;;;;;;4.65;3.42;;;23.80;88.40;;;;;;4227833;28;20514;-64
2022/02/05 03:53:16;;;;;;;6.78;3.42;;;23.80;87.90;;;;;;4227327;28;20039;-64
2022/02/05 03:55:21;;;;;;;5.22;3.45;;;23.50;88.60;;;;;;4224161;28;20075;-66
2022/02/05 03:57:25;;;;;;;4.05;3.22;;;23.50;88.30;;;;;;4226856;28;20127;-64
2022/02/05 03:59:30;;;;;;;6.10;3.72;;;23.50;89.20;;;;;;4229289;28;20043;-66
2022/02/05 04:01:34;;;;;;;6.63;3.60;;;23.70;88.40;;;;;;4223449;28;20043;-64
2022/02/05 04:03:39;;;;;;;5.38;3.60;;;23.90;88.60;;;;;;4226625;28;20039;-65
2022/02/05 04:05:44;;;;;;;7.57;4.30;;;24.00;86.60;;;;;;4229057;28;20130;-65
2022/02/05 04:07:51;;;;;;;5.45;3.80;;;23.80;87.60;;;;;;4225094;28;20482;-65
2022/02/05 04:10:00;;;;;;;7.70;3.63;;;23.80;87.60;;;;;;4226449;28;20036;-66
2022/02/05 04:16:38;;;;;;;4.03;3.40;;;24.10;88.20;;;;;;4228346;28;20071;-64
2022/02/05 04:18:42;;;;;;;7.93;3.45;;;24.00;86.40;;;;;;4225566;28;20086;-65
2022/02/05 04:20:46;;;;;;;6.82;3.47;;;23.90;87.80;;;;;;4226774;28;20044;-65
2022/02/05 04:22:50;;;;;;;6.28;3.40;;;24.10;87.90;;;;;;4226605;28;20097;-65
2022/02/05 04:24:54;;;;;;;6.30;3.00;;;24.30;87.90;;;;;;4226270;28;20052;-64
2022/02/05 04:26:59;;;;;;;4.80;2.92;;;24.40;87.50;;;;;;4225567;28;20099;-64
2022/02/05 04:29:07;;;;;;;5.43;3.40;;;24.60;87.30;;;;;;4228405;28;20051;-65
2022/02/05 04:31:11;;;;;;;5.70;4.03;;;24.60;86.10;;;;;;4227256;28;20048;-65
2022/02/05 04:33:16;;;;;;;6.47;3.92;;;24.50;86.50;;;;;;4226155;28;20180;-65
2022/02/05 04:35:20;;;;;;;4.72;3.97;;;24.40;86.30;;;;;;4225681;28;20045;-65
2022/02/05 04:37:28;;;;;;;5.45;3.70;;;24.50;85.90;;;;;;4227103;28;20455;-65
2022/02/05 04:39:33;;;;;;;6.68;4.60;;;24.50;85.90;;;;;;4228013;28;20090;-64
2022/02/05 04:42:03;;;;;;;6.97;4.93;;;24.70;86.60;;;;;;4225191;28;20052;-65
2022/02/05 04:46:44;;;;;;;7.75;3.85;;;25.10;84.40;;;;;;4226690;28;20038;-64
2022/02/05 04:55:40;;;;;;;6.60;3.63;;;24.90;84.30;;;;;;4224889;28;20054;-65
2022/02/05 04:57:55;;;;;;;6.53;4.47;;;24.90;84.90;;;;;;4227839;28;20059;-63
2022/02/05 05:02:35;;;;;;;6.05;4.00;;;25.00;84.30;;;;;;4227351;28;20719;-64
2022/02/05 05:04:47;;;;;;;9.90;5.95;;;24.90;85.00;;;;;;4222396;28;20044;-66
2022/02/05 05:07:51;;;;;;;7.05;5.05;;;25.00;85.40;;;;;;4226865;28;20124;-64
2022/02/05 05:20:29;;;;;;;11.00;6.18;;;24.70;84.60;;;;;;4226263;28;20046;-65
2022/02/05 05:22:33;;;;;;;10.68;5.47;;;24.70;84.40;;;;;;4221928;28;20111;-65
2022/02/05 05:24:38;;;;;;;8.00;6.00;;;24.80;85.10;;;;;;4225877;28;20775;-66
2022/02/05 05:26:43;;;;;;;9.25;5.90;;;24.90;84.40;;;;;;4226028;28;20032;-65
2022/02/05 05:28:48;;;;;;;7.00;4.05;;;24.90;83.60;;;;;;4226740;28;20063;-64
2022/02/05 05:30:53;;;;;;;4.75;3.63;;;24.90;84.20;;;;;;4224997;28;20105;-65
2022/02/05 05:32:58;;;;;;;5.53;3.70;;;24.90;84.00;;;;;;4224431;28;20055;-65
2022/02/05 05:35:03;;;;;;;6.30;3.58;;;24.90;84.10;;;;;;4222137;28;20040;-65
2022/02/05 05:37:09;;;;;;;5.85;3.33;;;25.00;84.80;;;;;;4222233;28;20059;-65
2022/02/05 05:39:14;;;;;;;7.78;3.47;;;25.10;84.10;;;;;;4223052;28;20094;-65
2022/02/05 05:41:19;;;;;;;7.93;3.78;;;25.30;84.80;;;;;;4222860;28;20770;-66
2022/02/05 05:43:56;;;;;;;5.00;3.83;;;25.40;83.80;;;;;;4221088;28;20044;-65
2022/02/05 05:50:34;;;;;;;7.28;4.32;;;25.40;83.90;;;;;;4221379;28;20529;-67
2022/02/05 05:52:36;;;;;;;6.68;3.88;;;25.50;84.00;;;;;;4221842;28;20759;-66
2022/02/05 05:54:42;;;;;;;7.80;4.00;;;25.50;83.00;;;;;;4227498;28;20055;-64
2022/02/05 05:56:47;;;;;;;7.45;4.32;;;25.40;82.90;;;;;;4221591;28;20062;-64
2022/02/05 05:58:51;;;;;;;4.50;3.25;;;25.40;83.90;;;;;;4222801;28;20047;-65
2022/02/05 06:00:56;;;;;;;6.72;3.00;;;25.30;83.80;;;;;;4223469;28;20043;-65
2022/02/05 06:03:01;;;;;;;6.05;3.42;;;25.30;82.80;;;;;;4225237;28;20122;-65
2022/02/05 06:05:08;;;;;;;5.75;3.35;;;25.30;82.80;;;;;;4223191;28;20040;-65
2022/02/05 06:07:13;;;;;;;4.80;3.20;;;25.40;83.40;;;;;;4222666;28;20547;-65
2022/02/05 06:09:18;;;;;;;8.20;3.40;;;25.50;82.70;;;;;;4222840;28;20051;-65
2022/02/05 06:11:22;;;;;;;7.10;3.35;;;25.60;82.60;;;;;;4223411;28;20040;-65
2022/02/05 06:13:28;;;;;;;7.47;3.50;;;25.60;81.60;;;;;;4220776;28;20415;-65
2022/02/05 06:15:32;;;;;;;6.18;3.30;;;25.50;81.80;;;;;;4222749;28;20036;-67
2022/02/05 06:17:37;;;;;;;6.03;3.53;;;25.60;83.70;;;;;;4223613;28;20437;-65
2022/02/05 06:19:42;;;;;;;7.75;3.65;;;25.70;83.00;;;;;;4223513;28;20044;-65
2022/02/05 06:21:46;;;;;;;6.35;3.40;;;25.60;82.30;;;;;;4219133;28;20055;-66
2022/02/05 06:23:51;;;;;;;6.40;3.55;;;25.70;82.60;;;;;;4222737;28;20063;-65
2022/02/05 06:25:56;;;;;;;7.28;3.30;;;25.80;83.00;;;;;;4222619;28;20133;-66
2022/02/05 06:28:00;;;;;;;5.57;3.33;;;25.80;82.20;;;;;;4222338;28;20486;-66
2022/02/05 06:30:05;;;;;;;6.32;3.60;;;25.80;82.00;;;;;;4219184;28;20093;-65
2022/02/05 06:32:09;;;;;;;4.35;3.47;;;25.80;81.70;;;;;;4223317;28;20051;-66
2022/02/05 06:34:14;;;;;;;5.63;3.50;;;25.90;82.10;;;;;;4222649;28;20043;-65
2022/02/05 06:36:18;;;;;;;6.47;3.72;;;26.00;82.10;;;;;;4222600;28;20089;-65
2022/02/05 06:38:24;;;;;;;5.15;3.47;;;26.00;81.20;;;;;;4226056;28;20517;-66
2022/02/05 06:40:29;;;;;;;5.50;3.58;;;25.90;80.60;;;;;;4224456;28;20097;-65
2022/02/05 06:42:33;;;;;;;7.18;3.30;;;25.90;81.40;;;;;;4222403;28;20048;-65
2022/02/05 06:44:38;;;;;;;8.32;3.45;;;25.90;81.40;;;;;;4222420;27;20043;-65
2022/02/05 06:46:42;;;;;;;4.95;3.60;;;25.90;80.50;;;;;;4221101;28;20048;-65
2022/02/05 06:48:47;;;;;;;6.30;3.40;;;25.80;81.00;;;;;;4219523;28;20123;-65
2022/02/05 06:50:51;;;;;;;6.47;3.33;;;25.70;81.90;;;;;;4222501;28;21600;-65
2022/02/05 06:52:56;;;;;;;8.50;3.95;;;25.80;82.20;;;;;;4223173;28;20054;-65
2022/02/05 06:55:01;;;;;;;7.78;3.72;;;25.80;81.90;;;;;;4221497;28;20064;-64
2022/02/05 06:57:06;;;;;;;11.02;3.70;;;25.80;82.30;;;;;;4221770;28;20049;-65
2022/02/05 06:59:11;;;;;;;7.70;3.25;;;25.80;82.30;;;;;;4219670;28;20143;-66
2022/02/05 07:01:15;;;;;;;8.02;3.35;;;25.90;81.80;;;;;;4222090;28;20619;-65
2022/02/05 07:03:21;;;;;;;10.32;3.38;;;25.90;82.60;;;;;;4221406;28;20051;-65
2022/02/05 07:05:26;;;;;;;8.23;4.32;;;25.80;82.00;;;;;;4222384;28;21418;-65
2022/02/05 07:07:30;;;;;;;7.90;3.10;;;25.70;82.60;;;;;;4220940;28;20052;-65
2022/02/05 07:09:38;;;;;;;6.35;3.20;;;25.70;82.20;;;;;;4226135;28;20047;-65
2022/02/05 07:11:42;;;;;;;3.95;3.05;;;25.70;82.70;;;;;;4219930;28;20036;-64
2022/02/05 07:13:46;;;;;;;6.80;3.33;;;25.80;81.90;;;;;;4221708;28;20109;-66
2022/02/05 07:16:05;;;;;;;7.57;3.03;;;25.80;82.50;;;;;;4221991;28;20044;-66
2022/02/05 07:20:36;;;;;;;5.45;3.35;;;25.90;82.10;;;;;;4223378;28;20058;-65
2022/02/05 07:29:33;;;;;;;7.15;3.33;;;26.30;80.70;;;;;;4213606;28;20050;-65
2022/02/05 07:31:40;;;;;;;10.38;3.20;;;26.30;81.10;;;;;;4216586;28;20036;-66
2022/02/05 07:33:45;;;;;;;4.70;3.00;;;26.30;81.50;;;;;;4223232;28;20821;-66
2022/02/05 07:35:49;;;;;;;5.57;3.40;;;26.40;80.90;;;;;;4229112;28;20047;-66
2022/02/05 07:37:56;;;;;;;4.18;2.97;;;26.40;81.60;;;;;;4229176;28;20055;-66
2022/02/05 07:40:01;;;;;;;5.43;3.50;;;26.40;81.60;;;;;;4226796;28;20123;-65
2022/02/05 07:42:06;;;;;;;6.88;3.15;;;26.40;81.00;;;;;;4228917;28;20442;-67
2022/02/05 07:44:13;;;;;;;6.95;3.00;;;26.30;80.50;;;;;;4228778;28;20043;-66
2022/02/05 07:46:19;;;;;;;6.68;3.50;;;26.20;80.50;;;;;;4229007;28;20088;-66
2022/02/05 07:48:23;;;;;;;7.07;3.63;;;26.20;80.80;;;;;;4219396;28;20040;-67
2022/02/05 07:50:27;;;;;;;6.05;3.38;;;26.30;80.80;;;;;;4227834;28;20088;-65
2022/02/05 07:52:32;;;;;;;8.32;4.32;;;26.40;80.70;;;;;;4226717;28;20089;-65
2022/02/05 07:54:37;;;;;;;7.13;4.40;;;26.40;80.70;;;;;;4225601;28;20139;-65
2022/02/05 07:56:44;;;;;;;5.93;4.25;;;26.40;80.70;;;;;;4228491;28;20537;-65
2022/02/05 07:58:48;;;;;;;6.30;4.25;;;26.40;81.00;;;;;;4227985;28;20498;-66
2022/02/05 08:00:53;;;;;;;12.40;4.65;;;26.40;81.10;;;;;;4228726;28;20047;-65
2022/02/05 08:02:58;;;;;;;7.30;4.45;;;26.40;81.00;;;;;;4219746;28;20047;-65
2022/02/05 08:05:03;;;;;;;7.93;5.18;;;26.40;80.80;;;;;;4224523;28;20383;-65
2022/02/05 08:07:10;;;;;;;9.18;5.50;;;26.40;81.30;;;;;;4227559;28;20036;-65
2022/02/05 08:09:26;;;;;;;7.75;5.07;;;26.30;80.10;;;;;;4228308;28;20158;-65
2022/02/05 08:11:42;;;;;;;8.60;5.18;;;26.20;80.50;;;;;;4228023;28;20085;-65
2022/02/05 08:13:50;;;;;;;7.05;4.50;;;26.20;81.30;;;;;;4225985;28;20036;-65
2022/02/05 08:15:58;;;;;;;11.15;4.43;;;26.20;80.70;;;;;;4228308;28;20052;-65
2022/02/05 08:18:03;;;;;;;7.38;4.72;;;26.40;80.80;;;;;;4212962;28;20047;-66
2022/02/05 08:20:08;;;;;;;9.65;4.72;;;26.40;80.50;;;;;;4213710;28;20044;-65
2022/02/05 08:22:13;;;;;;;8.10;4.70;;;26.30;80.10;;;;;;4221029;28;20036;-66
2022/02/05 08:24:19;;;;;;;6.78;4.20;;;26.40;81.30;;;;;;4228379;28;20050;-66
2022/02/05 08:26:28;;;;;;;5.80;3.95;;;26.40;80.80;;;;;;4228553;28;20045;-65
2022/02/05 08:28:34;;;;;;;9.20;4.20;;;26.50;80.80;;;;;;4222945;28;20629;-66
2022/02/05 08:30:38;;;;;;;5.63;3.78;;;26.50;80.60;;;;;;4227858;28;20050;-65
2022/02/05 08:32:45;;;;;;;11.13;5.20;;;26.60;79.80;;;;;;4224570;28;20375;-66
2022/02/05 08:34:50;;;;;;;11.15;5.40;;;26.60;80.40;;;;;;4226668;28;20039;-66
2022/02/05 08:36:57;;;;;;;11.38;4.63;;;26.60;80.90;;;;;;4228433;28;20048;-66
2022/02/05 08:39:02;;;;;;;6.85;3.55;;;26.60;80.30;;;;;;4229175;28;20054;-66
2022/02/05 08:41:08;;;;;;;7.78;5.25;;;26.40;80.20;;;;;;4229384;28;20070;-66
2022/02/05 08:43:12;;;;;;;9.18;4.15;;;26.40;79.30;;;;;;4228153;28;20032;-65
2022/02/05 08:45:17;;;;;;;8.45;3.72;;;26.40;80.70;;;;;;4226296;28;20105;-65
2022/02/05 08:47:21;;;;;;;4.80;3.20;;;26.50;80.60;;;;;;4228277;28;20047;-65
2022/02/05 08:49:28;;;;;;;8.23;3.25;;;26.40;80.30;;;;;;4228391;28;20397;-65
2022/02/05 08:51:34;;;;;;;7.20;3.20;;;26.40;80.60;;;;;;4228010;28;20044;-65
2022/02/05 08:53:38;;;;;;;5.30;3.38;;;26.40;80.90;;;;;;4227693;28;20051;-65
2022/02/05 08:55:43;;;;;;;9.23;3.30;;;26.50;81.00;;;;;;4224636;28;20066;-65
2022/02/05 08:57:48;;;;;;;6.10;3.08;;;26.50;80.90;;;;;;4228294;28;20047;-65
2022/02/05 08:59:58;;;;;;;4.47;3.10;;;26.40;79.60;;;;;;4228301;28;20055;-65
2022/02/05 09:02:12;;;;;;;6.53;3.30;;;26.40;80.40;;;;;;4223981;28;20027;-62
2022/02/05 09:04:30;;;;;;;5.00;3.20;;;26.40;80.90;;;;;;4224933;28;20040;-65
2022/02/05 09:06:39;;;;;;;4.80;3.00;;;26.50;80.70;;;;;;4225795;28;20097;-66
2022/02/05 09:08:50;;;;;;;9.18;3.70;;;26.50;80.60;;;;;;4227216;28;20047;-66
2022/02/05 09:11:06;;;;;;;5.40;3.63;;;26.40;80.90;;;;;;4227793;28;20039;-65
2022/02/05 09:13:36;;;;;;;6.53;3.67;;;26.40;80.20;;;;;;4231265;28;20036;-65
2022/02/05 09:15:35;;;;;;;7.70;5.35;;;26.40;80.60;;;;;;4228846;28;20042;-66
2022/02/05 09:17:39;;;;;;;8.40;5.35;;;26.40;80.90;;;;;;4227552;28;20067;-65
2022/02/05 09:19:43;;;;;;;18.10;8.25;;;26.50;80.80;;;;;;4227489;28;20486;-65
2022/02/05 09:21:49;;;;;;;19.40;10.20;;;26.40;80.50;;;;;;4229716;28;20047;-65
2022/02/05 09:23:55;;;;;;;17.80;9.85;;;26.40;81.00;;;;;;4225986;28;20044;-66
2022/02/05 09:26:00;;;;;;;15.20;5.95;;;26.40;81.00;;;;;;4231197;28;20108;-65
2022/02/05 09:28:06;;;;;;;7.13;4.30;;;26.40;81.00;;;;;;4229585;28;20036;-65
2022/02/05 09:30:28;;;;;;;6.35;4.30;;;26.30;80.30;;;;;;4211717;28;20139;-66
2022/02/05 09:32:32;;;;;;;7.68;4.65;;;26.30;81.20;;;;;;4228864;28;20043;-65
2022/02/05 09:34:36;;;;;;;10.05;5.40;;;26.30;81.50;;;;;;4228355;28;20067;-65
2022/02/05 09:36:41;;;;;;;13.77;5.63;;;26.40;81.40;;;;;;4228539;28;20474;-65
2022/02/05 09:38:46;;;;;;;11.32;5.60;;;26.40;81.20;;;;;;4230283;28;20074;-65
2022/02/05 09:40:50;;;;;;;10.52;6.10;;;26.40;81.30;;;;;;4230617;28;20043;-65
2022/02/05 09:42:55;;;;;;;10.15;6.90;;;26.50;81.90;;;;;;4229800;28;20043;-66
2022/02/05 09:45:02;;;;;;;13.38;7.40;;;26.50;82.00;;;;;;4231151;27;20071;-66
2022/02/05 09:47:07;;;;;;;9.38;6.88;;;26.50;81.30;;;;;;4231171;28;20035;-66
2022/02/05 09:49:14;;;;;;;17.98;7.35;;;26.40;81.40;;;;;;4230364;27;20044;-66
2022/02/05 09:51:24;;;;;;;10.13;7.03;;;26.40;81.20;;;;;;4228592;28;20040;-66
2022/02/05 09:53:29;;;;;;;16.58;7.65;;;26.40;81.80;;;;;;4230611;28;20127;-66
2022/02/05 09:55:33;;;;;;;18.73;11.27;;;26.40;81.80;;;;;;4230611;28;20055;-66
2022/02/05 09:57:37;;;;;;;17.95;11.75;;;26.30;81.00;;;;;;4228537;28;20042;-65
2022/02/05 09:59:47;;;;;;;16.50;10.45;;;26.30;81.80;;;;;;4229741;28;20039;-66
2022/02/05 10:02:26;;;;;;;11.90;6.78;;;26.30;81.70;;;;;;4229437;28;20046;-65
2022/02/05 10:04:33;;;;;;;12.70;7.10;;;26.30;81.90;;;;;;4227240;28;20077;-65
2022/02/05 10:06:46;;;;;;;13.27;6.90;;;26.30;82.20;;;;;;4197692;28;20041;-65
2022/02/05 10:09:11;;;;;;;10.90;5.93;;;26.30;82.00;;;;;;4229307;28;20050;-65
2022/02/05 10:11:16;;;;;;;10.30;6.55;;;26.30;81.80;;;;;;4229635;28;20052;-65
2022/02/05 10:13:20;;;;;;;10.32;5.72;;;26.30;82.30;;;;;;4219689;28;20164;-65
2022/02/05 10:15:37;;;;;;;10.57;6.03;;;26.30;82.80;;;;;;4214338;28;20106;-65
2022/02/05 10:17:45;;;;;;;10.40;5.50;;;26.30;81.80;;;;;;4214555;28;20044;-67
2022/02/05 10:19:51;;;;;;;18.48;5.60;;;26.30;82.40;;;;;;4216449;28;20509;-66
2022/02/05 10:22:04;;;;;;;12.20;5.10;;;26.30;82.70;;;;;;4219211;28;20067;-64
2022/02/05 10:24:09;;;;;;;8.85;4.93;;;26.30;81.20;;;;;;4226076;28;20513;-65
2022/02/05 10:26:14;;;;;;;8.65;4.40;;;26.20;82.10;;;;;;4229976;27;20055;-65
2022/02/05 10:28:19;;;;;;;8.57;4.35;;;26.20;82.80;;;;;;4212826;28;20592;-65
2022/02/05 10:30:26;;;;;;;11.32;4.65;;;26.20;82.20;;;;;;4224337;28;20056;-66
2022/02/05 10:32:31;;;;;;;18.42;6.07;;;26.10;82.60;;;;;;4219300;28;20440;-63
2022/02/05 10:37:24;;;;;;;15.45;8.93;;;26.00;82.80;;;;;;4231178;28;20050;-65
2022/02/05 10:39:31;;;;;;;13.02;8.02;;;26.00;83.20;;;;;;4230824;28;20398;-66
2022/02/05 10:43:01;;;;;;;12.60;7.00;;;26.00;82.80;;;;;;4221160;28;20055;-66
2022/02/05 10:43:59;;;;;;;10.85;6.53;;;26.00;82.60;;;;;;4213748;28;20036;-65
2022/02/05 10:46:05;;;;;;;14.63;6.47;;;26.00;82.70;;;;;;4218235;28;20043;-65
2022/02/05 10:48:14;;;;;;;13.65;7.22;;;26.00;82.70;;;;;;4226199;28;20044;-65
2022/02/05 10:50:28;;;;;;;13.90;8.23;;;26.00;83.20;;;;;;4213829;28;20044;-66
2022/02/05 10:52:35;;;;;;;16.20;8.25;;;26.00;83.30;;;;;;4222976;28;20044;-66
2022/02/05 10:54:55;;;;;;;16.65;8.57;;;26.00;83.40;;;;;;4226285;28;20113;-66
2022/02/05 10:57:08;;;;;;;16.38;7.90;;;26.00;84.10;;;;;;4225788;28;20071;-66
2022/02/05 10:59:28;;;;;;;;;;;26.00;84.60;;;;;;4229823;28;20077;-66
2022/02/05 11:06:06;;;;;;;12.93;7.55;;;25.90;84.80;;;;;;4218479;28;20093;-66
2022/02/05 11:08:12;;;;;;;29.42;19.38;;;25.90;85.60;;;;;;4215284;28;20502;-66
2022/02/05 11:17:28;;;;;;;18.60;8.85;;;25.80;88.00;;;;;;4228057;28;20043;-67
2022/02/05 11:19:33;;;;;;;19.55;9.25;;;25.70;86.40;;;;;;4229243;28;20112;-64
2022/02/05 11:21:37;;;;;;;18.15;8.52;;;25.70;86.70;;;;;;4228442;28;20527;-66
2022/02/05 11:23:46;;;;;;;13.90;7.30;;;25.70;86.40;;;;;;4228449;28;20043;-67
2022/02/05 11:25:50;;;;;;;15.07;7.43;;;25.80;86.10;;;;;;4227380;28;20043;-66
2022/02/05 11:27:55;;;;;;;17.25;6.72;;;25.80;86.30;;;;;;4228560;28;20051;-66
2022/02/05 11:30:32;;;;;;;11.13;6.10;;;25.70;86.00;;;;;;4226019;28;20062;-66
2022/02/05 11:32:37;;;;;;;12.40;6.95;;;25.70;86.50;;;;;;4226846;28;20043;-67
2022/02/05 11:34:48;;;;;;;17.20;7.57;;;25.60;86.80;;;;;;4208685;28;20147;-67
2022/02/05 11:37:13;;;;;;;18.58;10.55;;;25.60;86.90;;;;;;4227971;28;20051;-67
2022/02/05 11:39:17;;;;;;;33.58;15.98;;;25.70;87.70;;;;;;4228817;28;20126;-67
2022/02/05 11:41:31;;;;;;;29.90;16.15;;;25.60;88.20;;;;;;4228997;28;20060;-67
2022/02/05 11:43:36;;;;;;;40.23;20.87;;;25.60;88.60;;;;;;4226982;28;20363;-66
2022/02/05 11:45:41;;;;;;;44.05;22.13;;;25.60;88.70;;;;;;4225283;28;20338;-67
2022/02/05 11:47:45;;;;;;;28.73;13.68;;;25.50;88.40;;;;;;4226485;28;20093;-66
2022/02/05 11:50:13;;;;;;;24.00;12.77;;;25.40;85.50;;;;;;4228811;28;20599;-67
2022/02/05 11:52:49;;;;;;;22.65;12.68;;;25.30;86.00;;;;;;4228470;28;20589;-67
2022/02/05 11:55:00;;;;;;;21.38;11.75;;;25.20;86.10;;;;;;4225444;28;20524;-67
2022/02/05 11:57:08;;;;;;;27.33;12.85;;;25.20;86.30;;;;;;4226498;28;20075;-67
2022/02/05 11:59:12;;;;;;;25.67;12.52;;;25.10;85.90;;;;;;4227744;28;20052;-66
2022/02/05 12:01:38;;;;;;;25.90;14.77;;;25.10;86.10;;;;;;4224054;28;20051;-65
2022/02/05 12:03:44;;;;;;;30.73;18.10;;;25.20;86.20;;;;;;4225249;28;20092;-66
2022/02/05 12:05:50;;;;;;;30.60;16.98;;;25.10;85.90;;;;;;4211396;28;20768;-67
2022/02/05 12:08:26;;;;;;;31.67;17.17;;;25.10;85.90;;;;;;4215694;28;20047;-66
2022/02/05 12:10:46;;;;;;;26.13;13.63;;;25.10;86.60;;;;;;4229614;27;20054;-67
2022/02/05 12:12:51;;;;;;;24.45;13.27;;;25.10;86.40;;;;;;4229189;28;20082;-67
2022/02/05 12:15:24;;;;;;;19.88;11.40;;;25.00;86.40;;;;;;4229546;28;20043;-67
2022/02/05 12:17:39;;;;;;;21.83;11.40;;;25.10;85.90;;;;;;4229708;28;20104;-66
2022/02/05 12:20:06;;;;;;;22.42;10.93;;;25.10;86.00;;;;;;4229133;28;20051;-65
2022/02/05 12:22:12;;;;;;;18.98;9.93;;;25.00;86.10;;;;;;4229364;28;20130;-66
2022/02/05 12:26:47;;;;;;;14.43;9.48;;;25.00;85.80;;;;;;4212614;28;20048;-67
2022/02/05 12:28:54;;;;;;;17.58;9.20;;;25.00;85.30;;;;;;4211834;28;20055;-66
2022/02/05 12:31:00;;;;;;;16.83;9.40;;;24.90;85.00;;;;;;4225032;28;20047;-66
2022/02/05 12:33:06;;;;;;;16.05;9.05;;;24.90;84.70;;;;;;4227181;28;20718;-67
2022/02/05 12:35:10;;;;;;;15.63;8.90;;;24.90;84.70;;;;;;4212133;28;20048;-67
2022/02/05 12:37:15;;;;;;;15.48;8.82;;;24.90;84.60;;;;;;4213519;28;20111;-67
2022/02/05 12:39:28;;;;;;;14.75;8.23;;;24.80;84.60;;;;;;4210741;28;20747;-68
2022/02/05 12:41:32;;;;;;;22.17;9.00;;;24.90;84.80;;;;;;4215155;28;20061;-67
2022/02/05 12:43:56;;;;;;;15.65;9.18;;;24.90;84.80;;;;;;4220189;28;20040;-67
2022/02/05 12:46:10;;;;;;;19.20;8.68;;;24.90;84.00;;;;;;4220023;28;20128;-68
2022/02/05 12:48:19;;;;;;;13.45;9.27;;;24.90;84.90;;;;;;4218925;28;20054;-67
2022/02/05 12:50:24;;;;;;;18.17;9.77;;;25.00;84.80;;;;;;4219023;28;20040;-67
2022/02/05 12:52:32;;;;;;;17.25;10.50;;;25.00;84.40;;;;;;4219482;28;20040;-66
2022/02/05 12:54:43;;;;;;;19.85;9.90;;;24.90;85.30;;;;;;4218961;28;20495;-67
2022/02/05 12:56:52;;;;;;;19.55;9.85;;;24.90;85.80;;;;;;4217830;28;20085;-67
2022/02/05 12:59:04;;;;;;;19.10;9.75;;;24.80;85.90;;;;;;4211360;28;20502;-67
2022/02/05 13:01:09;;;;;;;14.77;9.80;;;24.80;86.20;;;;;;4223725;28;20456;-66
2022/02/05 13:03:27;;;;;;;20.17;10.43;;;24.70;86.40;;;;;;4226960;28;20048;-67
2022/02/05 13:05:33;;;;;;;23.60;11.00;;;24.80;86.70;;;;;;4213143;28;20044;-67
2022/02/05 13:07:47;;;;;;;21.95;10.73;;;24.70;86.60;;;;;;4222570;28;20040;-66
2022/02/05 13:10:05;;;;;;;17.90;11.30;;;24.80;86.70;;;;;;4214027;28;20109;-67
2022/02/05 13:12:11;;;;;;;18.98;10.93;;;24.80;86.70;;;;;;4223466;28;20044;-67
2022/02/05 13:14:15;;;;;;;17.58;10.32;;;24.70;86.50;;;;;;4227062;28;20040;-66
2022/02/05 13:16:21;;;;;;;17.10;10.07;;;24.60;86.20;;;;;;4211737;28;20047;-66
2022/02/05 13:18:40;;;;;;;20.92;10.85;;;24.50;85.60;;;;;;4212297;28;20063;-66
2022/02/05 13:25:44;;;;;;;16.65;10.77;;;24.20;87.30;;;;;;4211404;28;20072;-68
2022/02/05 13:33:35;;;;;;;21.52;12.32;;;24.20;86.80;;;;;;4214273;28;20131;-67
2022/02/05 13:34:36;;;;;;;21.40;11.90;;;24.30;87.10;;;;;;4215360;28;20044;-67
2022/02/05 13:39:18;;;;;;;21.00;13.00;;;24.40;87.10;;;;;;4223792;28;20143;-67
2022/02/05 13:41:33;;;;;;;25.20;14.07;;;24.30;87.20;;;;;;4222028;28;20036;-67